ZBAAZUUU

Guest
Details From ZBAA - Capital Intl
To ZUUU - Shuangliu
Flight Number -
Tags Generated
Created
Modified
Stats Distance 842 nm / 1,559 km
Max Altitude 0 ft / 0 m
Waypoints 3
Social Downloads 0
Likes 0
Share VATSIM

Download

Looking for another format? Having issues loading an existing format? Contact us
Advertisement - Login to hide

Notes

Generated

Route

ZBAA CTU ZUUU

ID Type Via Altitude Latitude Longitude Leg Dist Tot Dist Heading (true) Name
O ZBAA APT - 0 ft / 0 m 40.10211˚ 116.56969˚ - 0 nm - -
CTU VOR - 0 ft / 0 m 30.57500˚ 103.94333˚ 841 nm 841 nm 231° / 224° SHUANGLIU VOR-DME
O ZUUU APT - 0 ft / 0 m 30.56348˚ 103.94008˚ 0 nm 841 nm 194° / 194° -

Altitude Profile

Advertisement - Login to hide

Weather


0- 5 10 15 20 25 30 35+ Temperature / ° C

Clouds and Precipitation
Forecast for 2017-12-18 06:00 UTC. Updated 2 hours ago

Ground ~20,000 ft ~40,000 ft Winds

ZBAA

Details ICAO ZBAA (PEK)
Name CAPITAL INTL
Region China
Timezone Asia/Shanghai (UTC+8.0)
Stats Elevation 116 ft / 35 m (AMSL)
Location 40.080118° 116.584563°
Runways 2
Magnetic Variation 6.953° W

METAR

ZBAA 180700Z 35007MPS CAVOK 06/M17 Q1030 BECMG TL0950 28003MPS

Decode

TAF

Not found

Departure Runways

ID Width Length Bearing (true) Bearing (mag) Surface Threshold Offset Overrun Length
18L 197 ft / 60 m 12,436 ft / 3,790 m 173.12° 180.07° Asphalt 0 ft / 0 m 197 ft / 60 m
18R 164 ft / 50 m 10,506 ft / 3,202 m 174.11° 181.06° Asphalt 0 ft / 0 m 197 ft / 60 m
36L 164 ft / 50 m 10,506 ft / 3,202 m 354.11° 1.06° Asphalt 0 ft / 0 m 197 ft / 60 m
36R 197 ft / 60 m 12,436 ft / 3,790 m 353.12° 0.07° Asphalt 0 ft / 0 m 197 ft / 60 m

ZUUU

Details ICAO ZUUU (CTU)
Name SHUANGLIU
Region China
Timezone Asia/Chongqing (UTC+8.0)
Stats Elevation 1,625 ft / 495 m (AMSL)
Location 30.578528° 103.947086°
Runways 1
Magnetic Variation 1.981° W

METAR

ZUUU 180700Z 08002MPS 040V160 8000 NSC 14/01 Q1031 NOSIG

Decode

TAF

Not found

Destination Runways

ID Width Length Bearing (true) Bearing (mag) Surface Threshold Offset Overrun Length
02 197 ft / 60 m 11,834 ft / 3,607 m 21.84° 23.82° Concrete 0 ft / 0 m 196 ft / 60 m
20 197 ft / 60 m 11,834 ft / 3,607 m 201.85° 203.83° Concrete 0 ft / 0 m 196 ft / 60 m

Approach Navaids

Runway Type Ident Frequency Range Bearing (true) Bearing (mag) Slope Elevation
02 Localiser IZW 111.10 MHz 18 nm / 33 km 21.87° 23.85° - 1,624 ft / 495 m (AMSL)
02 Glidescope IZW 111.10 MHz 10 nm / 19 km 21.84° 23.83° 3.00° 1,624 ft / 495 m (AMSL)
20 Localiser IAA 109.10 MHz 18 nm / 33 km 201.87° 203.85° - 1,624 ft / 495 m (AMSL)
20 Glidescope IAA 109.10 MHz 10 nm / 19 km 201.84° 203.83° 3.00° 1,624 ft / 495 m (AMSL)

Popular Alternatives